Time;durP1;ratioP1;P1;durP2;ratioP2;P2;SDS_P1;SDS_P2;PMS_P1;PMS_P2;Temp;Humidity;BMP_temperature;BMP_pressure;BME280_temperature;BME280_humidity;BME280_pressure;Samples;Min_cycle;Max_cycle;Signal;HPM_P1;HPM_P2
2021/06/30 00:00:15;;;;;;;4.07;0.82;;;18.20;85.90;;;;;;5072094;28;20028;-79
2021/06/30 00:02:41;;;;;;;1.92;0.95;;;18.20;86.00;;;;;;5070206;28;20013;-79
2021/06/30 00:05:08;;;;;;;2.47;0.77;;;18.20;86.10;;;;;;5070692;28;20115;-79
2021/06/30 00:07:34;;;;;;;0.82;0.82;;;18.20;86.20;;;;;;5070922;28;20103;-80
2021/06/30 00:10:01;;;;;;;1.15;0.82;;;18.20;86.20;;;;;;5070594;28;20407;-79
2021/06/30 00:12:26;;;;;;;2.00;0.80;;;18.20;86.30;;;;;;5070734;28;20028;-79
2021/06/30 00:14:53;;;;;;;2.58;0.90;;;18.20;86.40;;;;;;5070093;28;20701;-80
2021/06/30 00:17:20;;;;;;;0.95;0.65;;;18.20;86.50;;;;;;5071621;28;20418;-79
2021/06/30 00:19:46;;;;;;;3.40;0.80;;;18.20;86.60;;;;;;5070085;28;20115;-79
2021/06/30 00:22:12;;;;;;;1.48;0.88;;;18.10;86.80;;;;;;5070311;28;20025;-79
2021/06/30 00:24:38;;;;;;;2.15;0.90;;;18.10;86.90;;;;;;5071200;28;20137;-79
2021/06/30 00:27:04;;;;;;;1.45;0.88;;;18.10;87.00;;;;;;5070627;28;20499;-79
2021/06/30 00:29:30;;;;;;;1.17;0.88;;;18.10;87.20;;;;;;5070572;28;20043;-78
2021/06/30 00:31:56;;;;;;;2.08;0.70;;;18.20;87.20;;;;;;5069701;28;20464;-78
2021/06/30 00:34:22;;;;;;;0.60;0.50;;;18.20;87.30;;;;;;5070554;28;20028;-78
2021/06/30 00:36:48;;;;;;;1.02;0.90;;;18.20;87.30;;;;;;5071167;28;20089;-78
2021/06/30 00:39:19;;;;;;;1.05;0.68;;;18.20;87.40;;;;;;5072102;28;20107;-78
2021/06/30 00:41:45;;;;;;;;;;;18.20;87.30;;;;;;5070274;28;20023;-79
2021/06/30 00:44:12;;;;;;;1.38;0.93;;;18.20;87.20;;;;;;5070358;28;19913;-78
2021/06/30 00:46:38;;;;;;;1.45;0.88;;;18.20;87.20;;;;;;5069780;28;20020;-79
2021/06/30 00:49:06;;;;;;;1.40;0.80;;;18.20;87.30;;;;;;5071417;28;20414;-79
2021/06/30 00:51:33;;;;;;;1.45;0.80;;;18.20;87.40;;;;;;5070323;28;20021;-79
2021/06/30 00:53:58;;;;;;;4.63;0.70;;;18.10;87.50;;;;;;5069749;28;20144;-79
2021/06/30 00:56:26;;;;;;;0.98;0.80;;;18.10;87.70;;;;;;5070325;28;20539;-79
2021/06/30 00:58:54;;;;;;;0.90;0.80;;;18.10;87.70;;;;;;5071065;28;20444;-79
2021/06/30 01:01:20;;;;;;;1.67;0.80;;;18.10;87.90;;;;;;5071538;28;20024;-79
2021/06/30 01:03:47;;;;;;;2.63;0.60;;;18.20;87.80;;;;;;5069268;28;20090;-79
2021/06/30 01:06:14;;;;;;;1.45;0.60;;;18.10;87.80;;;;;;5070198;28;20526;-79
2021/06/30 01:08:39;;;;;;;2.67;0.77;;;18.00;87.80;;;;;;5070500;28;20044;-79
2021/06/30 01:11:06;;;;;;;2.63;1.05;;;17.90;88.00;;;;;;5070238;28;20139;-79
2021/06/30 01:13:31;;;;;;;1.50;0.70;;;17.90;88.20;;;;;;5071527;28;20028;-79
2021/06/30 01:15:57;;;;;;;1.58;0.80;;;17.90;88.20;;;;;;5069484;28;20021;-78
2021/06/30 01:18:29;;;;;;;0.50;0.50;;;17.90;88.30;;;;;;5072409;28;20013;-78
2021/06/30 01:20:55;;;;;;;0.98;0.80;;;17.90;88.40;;;;;;5074547;28;20029;-78
2021/06/30 01:23:20;;;;;;;0.60;0.60;;;17.90;88.30;;;;;;5073677;28;20437;-78
2021/06/30 01:25:47;;;;;;;1.45;0.90;;;17.90;88.40;;;;;;5073026;28;20452;-78
2021/06/30 01:28:14;;;;;;;2.08;0.85;;;17.90;88.30;;;;;;5074982;28;20028;-78
2021/06/30 01:30:40;;;;;;;0.77;0.68;;;18.00;88.20;;;;;;5074350;28;20025;-78
2021/06/30 01:33:07;;;;;;;0.80;0.52;;;18.00;88.20;;;;;;5073712;28;20044;-78
2021/06/30 01:35:33;;;;;;;1.45;0.85;;;18.00;88.10;;;;;;5074914;28;20028;-78
2021/06/30 01:37:58;;;;;;;1.30;0.77;;;18.00;88.30;;;;;;5072876;28;20251;-77
2021/06/30 01:40:24;;;;;;;1.13;0.85;;;17.90;88.30;;;;;;5074474;28;20031;-77
2021/06/30 01:42:54;;;;;;;2.45;0.90;;;18.00;88.30;;;;;;5072836;28;20020;-78
2021/06/30 01:45:19;;;;;;;1.30;0.73;;;17.90;88.30;;;;;;5073576;28;20029;-78
2021/06/30 01:47:45;;;;;;;1.83;0.93;;;17.90;88.40;;;;;;5072678;28;20028;-78
2021/06/30 01:50:11;;;;;;;1.48;0.80;;;17.90;88.40;;;;;;5073330;28;20457;-78
2021/06/30 01:52:37;;;;;;;3.13;1.05;;;17.90;88.50;;;;;;5073274;28;20164;-78
2021/06/30 01:55:05;;;;;;;1.58;0.88;;;17.90;88.40;;;;;;5072516;28;20116;-78
2021/06/30 01:57:30;;;;;;;2.42;0.75;;;17.80;88.40;;;;;;5073097;28;20073;-78
2021/06/30 01:59:56;;;;;;;1.60;0.85;;;17.80;88.50;;;;;;5072361;28;20107;-78
2021/06/30 02:02:25;;;;;;;1.00;0.88;;;17.80;88.60;;;;;;5072738;28;20040;-78
2021/06/30 02:05:04;;;;;;;1.25;0.90;;;17.80;88.60;;;;;;5072270;28;20029;-78
2021/06/30 02:07:31;;;;;;;0.98;0.70;;;17.80;88.70;;;;;;5073104;28;20100;-78
2021/06/30 02:09:57;;;;;;;1.27;0.88;;;17.80;88.40;;;;;;5072048;28;20048;-78
2021/06/30 02:12:23;;;;;;;0.77;0.68;;;17.80;88.50;;;;;;5072956;28;20061;-78
2021/06/30 02:14:49;;;;;;;1.35;1.00;;;17.80;88.60;;;;;;5072188;28;20074;-78
2021/06/30 02:17:18;;;;;;;1.42;0.90;;;17.70;88.60;;;;;;5074427;28;20024;-78
2021/06/30 02:19:49;;;;;;;0.75;0.70;;;17.80;88.70;;;;;;5072153;28;20025;-79
2021/06/30 02:22:16;;;;;;;1.48;0.80;;;17.80;88.70;;;;;;5074042;28;20048;-78
2021/06/30 02:24:42;;;;;;;1.55;0.68;;;17.80;88.70;;;;;;5073621;28;20112;-80
2021/06/30 02:27:09;;;;;;;1.23;0.75;;;17.80;88.70;;;;;;5072704;28;20020;-78
2021/06/30 02:29:34;;;;;;;1.02;0.65;;;17.80;88.90;;;;;;5073238;28;20099;-78
2021/06/30 02:32:00;;;;;;;1.23;0.88;;;17.70;88.90;;;;;;5072885;28;20063;-78
2021/06/30 02:34:26;;;;;;;0.90;0.60;;;17.70;89.60;;;;;;5073782;28;20031;-78
2021/06/30 02:36:51;;;;;;;0.77;0.68;;;17.60;89.00;;;;;;5071777;28;20032;-78
2021/06/30 02:39:17;;;;;;;1.08;0.85;;;17.60;89.10;;;;;;5072280;28;20166;-77
2021/06/30 02:41:43;;;;;;;1.10;0.70;;;17.50;89.20;;;;;;5073493;28;20036;-80
2021/06/30 02:44:09;;;;;;;0.95;0.70;;;17.50;89.40;;;;;;5073253;28;20040;-78
2021/06/30 02:46:35;;;;;;;1.38;0.82;;;17.50;89.50;;;;;;5072155;28;20017;-77
2021/06/30 02:49:00;;;;;;;2.03;0.77;;;17.50;89.60;;;;;;5072873;28;20080;-78
2021/06/30 02:51:26;;;;;;;0.68;0.60;;;17.40;89.60;;;;;;5073660;28;20028;-78
2021/06/30 02:53:51;;;;;;;0.77;0.60;;;17.40;89.60;;;;;;5071332;28;20111;-78
2021/06/30 02:56:21;;;;;;;2.63;0.80;;;17.50;89.60;;;;;;5071980;28;20105;-78
2021/06/30 02:58:49;;;;;;;0.75;0.70;;;17.50;89.50;;;;;;5071237;28;20127;-78
2021/06/30 03:01:17;;;;;;;0.75;0.60;;;17.50;89.40;;;;;;5073467;28;20032;-78
2021/06/30 03:03:43;;;;;;;1.88;0.60;;;17.60;89.60;;;;;;5071656;28;20066;-77
2021/06/30 03:06:09;;;;;;;1.17;0.68;;;17.50;89.50;;;;;;5071085;28;20021;-78
2021/06/30 03:08:35;;;;;;;0.75;0.60;;;17.60;89.50;;;;;;5071618;28;20045;-77
2021/06/30 03:11:01;;;;;;;1.02;0.60;;;17.60;89.60;;;;;;5072412;28;20025;-78
2021/06/30 03:13:26;;;;;;;1.15;0.75;;;17.50;89.70;;;;;;5071586;28;20021;-77
2021/06/30 03:15:52;;;;;;;0.73;0.50;;;17.50;90.20;;;;;;5070974;28;20020;-75
2021/06/30 03:18:18;;;;;;;1.90;0.80;;;17.50;90.00;;;;;;5071483;28;20054;-76
2021/06/30 03:20:45;;;;;;;1.10;0.75;;;17.40;90.00;;;;;;5072716;28;20103;-76
2021/06/30 03:23:13;;;;;;;0.80;0.80;;;17.30;90.00;;;;;;5071655;28;20071;-76
2021/06/30 03:25:39;;;;;;;1.48;0.70;;;17.30;90.10;;;;;;5072533;28;20035;-76
2021/06/30 03:28:06;;;;;;;0.95;0.68;;;17.30;90.10;;;;;;5072133;28;20372;-76
2021/06/30 03:30:34;;;;;;;0.90;0.80;;;17.30;90.20;;;;;;5071337;28;20070;-76
2021/06/30 03:32:59;;;;;;;0.80;0.63;;;17.30;90.10;;;;;;5071906;28;20028;-76
2021/06/30 03:35:25;;;;;;;1.35;0.80;;;17.30;90.10;;;;;;5072212;28;20028;-76
2021/06/30 03:37:51;;;;;;;0.60;0.60;;;17.30;90.20;;;;;;5070532;28;20162;-76
2021/06/30 03:40:17;;;;;;;1.17;0.60;;;17.30;90.20;;;;;;5071120;28;20381;-75
2021/06/30 03:42:42;;;;;;;0.93;0.63;;;17.20;90.20;;;;;;5070459;28;20024;-76
2021/06/30 03:45:09;;;;;;;1.23;0.55;;;17.30;90.20;;;;;;5070305;28;20444;-76
2021/06/30 03:47:35;;;;;;;0.88;0.70;;;17.20;90.20;;;;;;5072407;28;20476;-76
2021/06/30 03:50:00;;;;;;;2.00;0.70;;;17.20;90.30;;;;;;5071644;28;20048;-76
2021/06/30 03:52:26;;;;;;;1.20;0.77;;;17.30;90.30;;;;;;5070938;28;20020;-76
2021/06/30 03:54:55;;;;;;;1.35;0.77;;;17.30;90.40;;;;;;5070337;28;20028;-76
2021/06/30 03:57:21;;;;;;;1.23;0.80;;;17.30;90.30;;;;;;5071846;28;20095;-75
2021/06/30 03:59:47;;;;;;;0.88;0.60;;;17.20;90.30;;;;;;5070871;28;20123;-76
2021/06/30 04:02:12;;;;;;;0.93;0.80;;;17.20;90.30;;;;;;5071161;28;20029;-76
2021/06/30 04:04:38;;;;;;;0.68;0.60;;;17.20;90.30;;;;;;5070815;28;20033;-76
2021/06/30 04:07:04;;;;;;;1.33;0.85;;;17.10;90.30;;;;;;5070202;28;20021;-77
2021/06/30 04:09:30;;;;;;;1.13;0.82;;;17.20;90.30;;;;;;5070378;28;20407;-76
2021/06/30 04:11:55;;;;;;;1.45;0.93;;;17.20;90.30;;;;;;5070237;28;20052;-77
2021/06/30 04:14:21;;;;;;;0.98;0.70;;;17.20;90.30;;;;;;5070690;28;20055;-76
2021/06/30 04:16:47;;;;;;;1.38;0.80;;;17.20;90.30;;;;;;5070625;28;20031;-76
2021/06/30 04:19:13;;;;;;;0.88;0.80;;;17.30;90.30;;;;;;5071576;28;20133;-76
2021/06/30 04:21:39;;;;;;;1.83;0.90;;;17.30;90.30;;;;;;5070647;28;20074;-76
2021/06/30 04:24:07;;;;;;;1.33;0.95;;;17.30;90.20;;;;;;5069850;28;20028;-76
2021/06/30 04:26:33;;;;;;;2.92;1.55;;;17.20;90.20;;;;;;5070555;28;20162;-76
2021/06/30 04:28:59;;;;;;;4.55;1.30;;;17.20;90.20;;;;;;5071549;28;20020;-77
2021/06/30 04:31:24;;;;;;;1.35;1.10;;;17.20;90.20;;;;;;5070510;28;20384;-76
2021/06/30 04:33:50;;;;;;;2.05;1.10;;;17.20;90.30;;;;;;5070529;28;20032;-77
2021/06/30 04:36:16;;;;;;;2.45;1.20;;;17.20;90.30;;;;;;5070118;28;20025;-76
2021/06/30 04:38:42;;;;;;;1.50;0.90;;;17.20;90.30;;;;;;5071704;28;20028;-77
2021/06/30 04:41:10;;;;;;;2.75;1.23;;;17.20;90.60;;;;;;5070760;28;20025;-77
2021/06/30 04:43:36;;;;;;;1.73;1.02;;;17.10;90.20;;;;;;5070417;28;20028;-77
2021/06/30 04:46:01;;;;;;;2.20;1.23;;;17.10;90.30;;;;;;5071611;28;20035;-77
2021/06/30 04:48:27;;;;;;;1.45;0.95;;;17.10;90.30;;;;;;5070664;28;20457;-77
2021/06/30 04:50:53;;;;;;;1.55;0.93;;;17.00;90.30;;;;;;5069803;28;20074;-78
2021/06/30 04:53:20;;;;;;;5.70;1.73;;;17.00;90.30;;;;;;5072259;28;20457;-77
2021/06/30 04:55:46;;;;;;;2.08;1.15;;;17.00;90.30;;;;;;5075367;28;20427;-76
2021/06/30 04:58:13;;;;;;;2.72;1.20;;;17.00;90.30;;;;;;5073631;28;20452;-76
2021/06/30 05:00:39;;;;;;;3.17;1.30;;;17.10;90.30;;;;;;5074146;28;20025;-76
2021/06/30 05:03:04;;;;;;;1.85;1.30;;;17.00;90.30;;;;;;5074837;28;20027;-77
2021/06/30 05:05:30;;;;;;;2.20;1.25;;;17.00;90.30;;;;;;5074985;28;20024;-76
2021/06/30 05:07:56;;;;;;;2.25;1.40;;;17.00;90.30;;;;;;5073385;28;20142;-78
2021/06/30 05:10:21;;;;;;;2.63;1.35;;;17.00;90.30;;;;;;5075495;28;20049;-77
2021/06/30 05:12:47;;;;;;;3.38;1.70;;;17.00;90.30;;;;;;5073831;28;20408;-76
2021/06/30 05:15:13;;;;;;;2.42;1.27;;;17.00;90.30;;;;;;5072907;28;20066;-76
2021/06/30 05:17:39;;;;;;;3.30;1.35;;;17.10;90.30;;;;;;5074814;28;20103;-76
2021/06/30 05:20:05;;;;;;;2.13;1.20;;;17.00;90.30;;;;;;5072507;28;20025;-76
2021/06/30 05:22:31;;;;;;;2.97;1.63;;;17.00;90.30;;;;;;5073684;28;20447;-76
2021/06/30 05:24:57;;;;;;;4.35;1.60;;;17.00;90.30;;;;;;5074294;28;20119;-77
2021/06/30 05:27:22;;;;;;;2.42;1.33;;;17.00;90.30;;;;;;5074951;28;20035;-76
2021/06/30 05:29:48;;;;;;;2.67;1.45;;;17.00;90.30;;;;;;5074920;28;20025;-76
2021/06/30 05:32:14;;;;;;;2.55;1.45;;;17.10;90.30;;;;;;5072884;28;20060;-76
2021/06/30 05:34:40;;;;;;;3.63;1.60;;;17.00;90.30;;;;;;5073386;28;20465;-76
2021/06/30 05:37:06;;;;;;;4.00;1.60;;;17.00;90.30;;;;;;5074090;28;20034;-76
2021/06/30 05:39:32;;;;;;;3.53;1.50;;;17.00;90.30;;;;;;5073516;28;20182;-79
2021/06/30 05:41:58;;;;;;;3.42;1.60;;;17.00;90.30;;;;;;5072827;28;20396;-76
2021/06/30 05:44:23;;;;;;;4.75;1.40;;;17.00;90.30;;;;;;5073207;28;20384;-76
2021/06/30 05:46:49;;;;;;;2.05;1.30;;;17.10;90.30;;;;;;5073340;28;20021;-76
2021/06/30 05:49:16;;;;;;;2.15;1.40;;;17.10;90.20;;;;;;5072840;28;20146;-76
2021/06/30 05:51:42;;;;;;;3.65;1.30;;;17.10;90.10;;;;;;5073220;28;20116;-76
2021/06/30 05:54:09;;;;;;;1.80;1.30;;;17.10;90.20;;;;;;5072512;28;20051;-76
2021/06/30 05:56:36;;;;;;;2.25;1.50;;;17.10;90.20;;;;;;5073095;28;20013;-76
2021/06/30 05:59:01;;;;;;;2.70;1.30;;;17.10;90.20;;;;;;5073567;28;20090;-76
2021/06/30 06:01:27;;;;;;;2.20;1.30;;;17.10;90.20;;;;;;5073051;28;20481;-76
2021/06/30 06:03:53;;;;;;;3.10;1.20;;;17.00;90.30;;;;;;5073181;28;20032;-76
2021/06/30 06:06:18;;;;;;;2.25;1.48;;;17.00;90.40;;;;;;5072287;28;20051;-76
2021/06/30 06:08:44;;;;;;;1.83;1.23;;;16.90;90.50;;;;;;5074159;28;20384;-76
2021/06/30 06:11:13;;;;;;;2.10;1.52;;;16.90;90.60;;;;;;5073607;28;20103;-76
2021/06/30 06:13:45;;;;;;;3.63;1.45;;;16.80;90.70;;;;;;5072424;28;20074;-76
2021/06/30 06:16:16;;;;;;;2.30;1.20;;;16.80;90.70;;;;;;5073099;28;20066;-76
2021/06/30 06:18:42;;;;;;;2.25;1.20;;;16.80;90.80;;;;;;5072879;28;20013;-75
2021/06/30 06:21:08;;;;;;;2.13;1.38;;;16.70;90.80;;;;;;5073619;28;20024;-75
2021/06/30 06:23:34;;;;;;;3.08;1.30;;;16.70;90.90;;;;;;5072449;28;20078;-75
2021/06/30 06:26:00;;;;;;;1.95;1.20;;;16.80;90.90;;;;;;5071854;28;20055;-76
2021/06/30 06:28:30;;;;;;;2.33;1.38;;;16.80;90.80;;;;;;5072436;28;20461;-75
2021/06/30 06:30:56;;;;;;;1.00;0.90;;;16.80;90.80;;;;;;5072355;28;20051;-75
2021/06/30 06:33:22;;;;;;;1.95;1.20;;;16.80;90.80;;;;;;5073071;28;20021;-75
2021/06/30 06:35:47;;;;;;;2.03;1.23;;;16.90;90.80;;;;;;5073577;28;20074;-75
2021/06/30 06:38:15;;;;;;;2.65;1.40;;;16.90;90.80;;;;;;5071743;28;20107;-75
2021/06/30 06:40:41;;;;;;;2.38;1.40;;;16.90;90.80;;;;;;5072286;28;20017;-75
2021/06/30 06:43:08;;;;;;;2.25;1.30;;;17.00;90.80;;;;;;5072699;28;20031;-75
2021/06/30 06:45:34;;;;;;;2.33;1.17;;;17.00;90.80;;;;;;5072045;28;20063;-75
2021/06/30 06:48:00;;;;;;;2.58;1.25;;;17.10;90.80;;;;;;5072079;28;20056;-75
2021/06/30 06:50:26;;;;;;;1.83;1.17;;;17.10;90.70;;;;;;5073291;28;20024;-75
2021/06/30 06:52:51;;;;;;;2.15;1.35;;;17.10;90.60;;;;;;5073308;28;20021;-75
2021/06/30 06:55:17;;;;;;;2.10;1.30;;;17.20;90.60;;;;;;5071375;28;20052;-75
2021/06/30 06:57:44;;;;;;;1.17;1.00;;;17.20;90.60;;;;;;5071551;28;20024;-75
2021/06/30 07:00:10;;;;;;;3.13;1.52;;;17.30;90.60;;;;;;5072459;28;20111;-75
2021/06/30 07:02:36;;;;;;;2.10;1.15;;;17.30;90.60;;;;;;5071640;28;20031;-75
2021/06/30 07:05:02;;;;;;;2.42;1.20;;;17.40;90.50;;;;;;5072121;28;20033;-78
2021/06/30 07:07:28;;;;;;;2.70;1.40;;;17.40;90.40;;;;;;5071275;28;20053;-75
2021/06/30 07:09:53;;;;;;;3.28;1.20;;;17.40;90.40;;;;;;5071443;28;20040;-76
2021/06/30 07:12:20;;;;;;;2.38;1.20;;;17.40;90.50;;;;;;5071060;28;20047;-76
2021/06/30 07:14:46;;;;;;;1.85;1.17;;;17.30;90.50;;;;;;5072886;28;20052;-76
2021/06/30 07:17:11;;;;;;;2.08;1.17;;;17.30;90.50;;;;;;5072007;28;20056;-75
2021/06/30 07:19:37;;;;;;;2.42;1.38;;;17.30;90.50;;;;;;5071365;28;20028;-75
2021/06/30 07:22:03;;;;;;;2.05;1.45;;;17.30;90.60;;;;;;5072413;28;20034;-77
2021/06/30 07:24:29;;;;;;;3.00;1.42;;;17.30;90.70;;;;;;5071490;28;20024;-75
2021/06/30 07:26:55;;;;;;;1.75;1.20;;;17.30;90.70;;;;;;5071337;28;20341;-75
2021/06/30 07:29:20;;;;;;;1.80;1.15;;;17.30;90.60;;;;;;5070684;28;20101;-75
2021/06/30 07:31:47;;;;;;;2.03;1.15;;;17.30;90.50;;;;;;5071171;28;20025;-76
2021/06/30 07:34:12;;;;;;;2.42;1.20;;;17.40;90.50;;;;;;5070473;28;20077;-75
2021/06/30 07:36:38;;;;;;;2.53;1.42;;;17.40;90.60;;;;;;5072468;28;20129;-75
2021/06/30 07:39:05;;;;;;;1.27;0.90;;;17.40;90.60;;;;;;5071447;28;20123;-77
2021/06/30 07:41:31;;;;;;;3.55;1.33;;;17.40;90.60;;;;;;5071285;28;20031;-76
2021/06/30 07:43:57;;;;;;;1.98;1.42;;;17.40;90.60;;;;;;5072204;28;20032;-76
2021/06/30 07:46:23;;;;;;;2.85;1.73;;;17.40;90.50;;;;;;5071405;28;20032;-76
2021/06/30 07:48:50;;;;;;;2.78;1.48;;;17.40;90.50;;;;;;5070765;28;20028;-76
2021/06/30 07:51:16;;;;;;;1.83;1.40;;;17.50;90.40;;;;;;5070205;28;20166;-75
2021/06/30 07:53:43;;;;;;;2.75;1.55;;;17.60;90.40;;;;;;5070849;28;20529;-75
2021/06/30 07:56:10;;;;;;;2.55;1.40;;;17.60;90.20;;;;;;5070337;28;20017;-75
2021/06/30 07:58:37;;;;;;;5.13;1.70;;;17.60;90.20;;;;;;5072277;28;20410;-75
2021/06/30 08:01:03;;;;;;;2.28;1.40;;;17.70;90.20;;;;;;5070721;28;20023;-75
2021/06/30 08:03:28;;;;;;;3.30;1.55;;;17.70;90.20;;;;;;5070101;28;20367;-75
2021/06/30 08:05:54;;;;;;;3.10;1.58;;;17.80;90.20;;;;;;5071951;28;20017;-76
2021/06/30 08:08:20;;;;;;;1.85;1.40;;;17.70;90.10;;;;;;5071420;28;20104;-76
2021/06/30 08:10:45;;;;;;;2.63;1.50;;;17.80;90.10;;;;;;5072093;28;20055;-76
2021/06/30 08:13:11;;;;;;;3.20;1.90;;;17.90;90.10;;;;;;5070075;28;20115;-75
2021/06/30 08:15:37;;;;;;;3.15;2.00;;;17.90;90.00;;;;;;5070642;28;20581;-76
2021/06/30 08:18:02;;;;;;;2.97;1.52;;;17.90;90.00;;;;;;5070682;28;20027;-76
2021/06/30 08:20:28;;;;;;;2.88;1.52;;;18.00;90.00;;;;;;5071385;28;20020;-76
2021/06/30 08:22:54;;;;;;;2.47;1.73;;;18.00;89.90;;;;;;5070647;28;20017;-77
2021/06/30 08:25:22;;;;;;;4.50;1.50;;;18.10;89.80;;;;;;5069534;28;20043;-77
2021/06/30 08:27:48;;;;;;;2.75;1.70;;;18.10;89.70;;;;;;5070047;28;20021;-77
2021/06/30 08:30:14;;;;;;;3.28;1.67;;;18.10;89.70;;;;;;5071262;28;20104;-76
2021/06/30 08:32:43;;;;;;;3.38;1.60;;;18.10;89.60;;;;;;5071749;28;20023;-76
2021/06/30 08:35:10;;;;;;;3.65;1.80;;;18.00;89.70;;;;;;5069973;28;20028;-77
2021/06/30 08:37:40;;;;;;;3.33;1.55;;;18.10;90.00;;;;;;5071883;28;20021;-76
2021/06/30 08:40:10;;;;;;;3.15;1.67;;;18.00;90.00;;;;;;5070521;28;20415;-76
2021/06/30 08:42:35;;;;;;;2.42;1.70;;;18.10;89.90;;;;;;5071444;28;20100;-77
2021/06/30 08:45:01;;;;;;;3.28;1.70;;;18.10;89.70;;;;;;5070298;28;20124;-77
2021/06/30 08:47:34;;;;;;;2.25;1.42;;;18.10;89.70;;;;;;5069703;28;20024;-76
2021/06/30 08:50:01;;;;;;;3.08;1.60;;;18.10;89.70;;;;;;5071523;28;20032;-77
2021/06/30 08:52:27;;;;;;;3.42;1.55;;;18.10;89.60;;;;;;5069340;28;20028;-77
2021/06/30 08:54:57;;;;;;;3.05;1.70;;;18.10;89.60;;;;;;5071857;28;20020;-75
2021/06/30 08:57:24;;;;;;;3.25;1.80;;;18.20;89.70;;;;;;5069563;28;20484;-77
2021/06/30 08:59:51;;;;;;;2.60;1.63;;;18.20;89.60;;;;;;5071565;28;20491;-75
2021/06/30 09:02:16;;;;;;;3.10;1.70;;;18.20;89.60;;;;;;5069558;28;20497;-75
2021/06/30 09:04:43;;;;;;;2.45;1.10;;;18.30;89.60;;;;;;5070083;28;20128;-75
2021/06/30 09:07:09;;;;;;;2.47;1.50;;;18.30;89.60;;;;;;5069987;28;20024;-76
2021/06/30 09:09:43;;;;;;;3.22;1.67;;;18.30;89.40;;;;;;5071137;28;20044;-76
2021/06/30 09:12:09;;;;;;;3.05;1.73;;;18.40;89.20;;;;;;5071475;28;20028;-75
2021/06/30 09:14:37;;;;;;;2.80;1.67;;;18.40;89.10;;;;;;5069532;28;20178;-75
2021/06/30 09:17:16;;;;;;;2.75;1.52;;;18.40;89.10;;;;;;5069886;28;20403;-75
2021/06/30 09:19:53;;;;;;;2.63;1.17;;;18.50;89.20;;;;;;5071557;28;20468;-76
2021/06/30 09:22:21;;;;;;;2.83;1.52;;;18.40;89.00;;;;;;5069459;28;20056;-76
2021/06/30 09:24:48;;;;;;;3.40;1.70;;;18.40;89.30;;;;;;5069791;28;20067;-76
2021/06/30 09:27:15;;;;;;;2.45;1.38;;;18.40;89.50;;;;;;5069296;28;20391;-76
2021/06/30 09:29:42;;;;;;;3.63;1.80;;;18.40;89.50;;;;;;5069968;28;20116;-76
2021/06/30 09:32:17;;;;;;;3.10;1.30;;;18.50;89.40;;;;;;5069604;28;20048;-76
2021/06/30 09:34:43;;;;;;;2.90;1.45;;;18.50;89.20;;;;;;5070147;28;20056;-75
2021/06/30 09:37:10;;;;;;;2.85;1.58;;;18.60;89.00;;;;;;5071236;28;20034;-76
2021/06/30 09:39:53;;;;;;;2.22;1.58;;;18.60;88.90;;;;;;5071513;28;20039;-76
2021/06/30 09:42:18;;;;;;;2.15;1.33;;;18.60;88.90;;;;;;5072858;28;20017;-75
2021/06/30 09:44:44;;;;;;;1.60;1.23;;;18.60;88.90;;;;;;5073171;28;20029;-76
2021/06/30 09:47:10;;;;;;;2.03;1.23;;;18.50;88.90;;;;;;5073367;28;20017;-76
2021/06/30 09:49:37;;;;;;;2.65;1.23;;;18.50;89.20;;;;;;5072711;28;20372;-75
2021/06/30 09:52:09;;;;;;;3.80;1.40;;;18.40;89.30;;;;;;5073173;28;20119;-75
2021/06/30 09:54:38;;;;;;;3.30;1.70;;;18.40;89.40;;;;;;5072636;28;20060;-76
2021/06/30 09:57:17;;;;;;;2.80;1.40;;;18.40;89.50;;;;;;5072803;28;20086;-76
2021/06/30 09:59:44;;;;;;;2.22;1.20;;;18.40;89.40;;;;;;5073109;28;20028;-76
2021/06/30 10:02:18;;;;;;;1.55;1.10;;;18.40;89.30;;;;;;5072987;28;20020;-76
2021/06/30 10:04:56;;;;;;;4.13;1.50;;;18.40;89.30;;;;;;5073045;28;20028;-76
2021/06/30 10:07:28;;;;;;;2.97;1.40;;;18.50;89.20;;;;;;5072515;28;20025;-76
2021/06/30 10:10:05;;;;;;;1.85;1.23;;;18.40;89.10;;;;;;5074217;28;20082;-76
2021/06/30 10:12:33;;;;;;;2.92;1.65;;;18.40;89.20;;;;;;5073691;28;20025;-74
2021/06/30 10:15:00;;;;;;;2.22;1.33;;;18.50;89.10;;;;;;5072781;28;20567;-75
2021/06/30 10:17:27;;;;;;;3.08;1.67;;;18.50;89.20;;;;;;5072067;28;20460;-75
2021/06/30 10:19:54;;;;;;;3.15;1.70;;;18.60;89.10;;;;;;5074031;28;20016;-75
2021/06/30 10:22:25;;;;;;;3.42;1.70;;;18.60;89.00;;;;;;5072018;28;20055;-78
2021/06/30 10:24:52;;;;;;;2.78;1.60;;;18.70;88.60;;;;;;5072629;28;20086;-76
2021/06/30 10:27:18;;;;;;;4.72;1.60;;;18.80;88.40;;;;;;5071970;28;20021;-76
2021/06/30 10:29:56;;;;;;;3.13;1.55;;;18.80;88.40;;;;;;5072416;28;20480;-75
2021/06/30 10:32:23;;;;;;;3.83;1.90;;;18.90;88.40;;;;;;5071874;28;20103;-76
2021/06/30 10:34:51;;;;;;;3.22;1.48;;;18.90;88.40;;;;;;5072328;28;20078;-76
2021/06/30 10:37:32;;;;;;;2.92;1.60;;;18.90;88.30;;;;;;5071631;28;20460;-78
2021/06/30 10:40:03;;;;;;;2.72;1.80;;;18.90;88.20;;;;;;5072118;28;20044;-76
2021/06/30 10:42:38;;;;;;;3.33;1.42;;;18.90;88.10;;;;;;5072961;28;20025;-76
2021/06/30 10:45:12;;;;;;;1.77;1.27;;;19.10;87.90;;;;;;5071916;28;20044;-76
2021/06/30 10:48:00;;;;;;;2.70;1.52;;;19.20;87.40;;;;;;5072572;28;20427;-76
2021/06/30 10:50:32;;;;;;;3.25;1.80;;;19.40;87.00;;;;;;5071073;28;20024;-76
2021/06/30 10:53:04;;;;;;;2.83;1.63;;;19.50;86.50;;;;;;5072119;28;20025;-76
2021/06/30 10:55:33;;;;;;;3.30;1.48;;;19.40;86.50;;;;;;5072939;28;20086;-76
2021/06/30 10:58:14;;;;;;;2.85;1.77;;;19.40;86.50;;;;;;5072151;28;20021;-75
2021/06/30 11:01:02;;;;;;;2.78;1.48;;;19.40;86.60;;;;;;5072673;28;20032;-76
2021/06/30 11:03:36;;;;;;;2.13;1.20;;;19.30;86.80;;;;;;5070641;28;20032;-76
2021/06/30 11:06:16;;;;;;;2.55;1.50;;;19.10;87.20;;;;;;5072956;28;20051;-75
2021/06/30 11:08:49;;;;;;;2.17;1.30;;;18.90;87.80;;;;;;5071139;28;20032;-75
2021/06/30 11:11:19;;;;;;;2.30;1.60;;;18.90;88.10;;;;;;5071533;28;20052;-76
2021/06/30 11:14:02;;;;;;;1.98;1.40;;;19.00;88.10;;;;;;5071598;28;20020;-76
2021/06/30 11:16:36;;;;;;;2.40;1.20;;;19.00;88.00;;;;;;5072312;28;20082;-76
2021/06/30 11:19:22;;;;;;;2.17;1.30;;;19.10;87.90;;;;;;5072960;28;20025;-78
2021/06/30 11:21:52;;;;;;;3.33;1.67;;;19.10;87.70;;;;;;5068790;28;20037;-76
2021/06/30 11:24:34;;;;;;;2.08;1.42;;;19.10;88.00;;;;;;5072777;28;20093;-77
2021/06/30 11:27:22;;;;;;;2.28;1.50;;;19.10;88.00;;;;;;5071372;28;20350;-77
2021/06/30 11:30:15;;;;;;;2.92;1.58;;;19.10;87.90;;;;;;5067383;28;20036;-77
2021/06/30 11:32:42;;;;;;;3.20;1.60;;;19.10;87.90;;;;;;5070818;28;20040;-77
2021/06/30 11:35:11;;;;;;;2.53;1.60;;;19.10;87.90;;;;;;5072654;28;20024;-77
2021/06/30 11:37:45;;;;;;;2.15;1.30;;;19.00;87.80;;;;;;5071931;28;20020;-77
2021/06/30 11:40:17;;;;;;;3.55;2.05;;;19.00;87.80;;;;;;5072532;28;20020;-77
2021/06/30 11:42:49;;;;;;;3.65;2.17;;;18.90;88.20;;;;;;5070556;28;20464;-77
2021/06/30 11:45:43;;;;;;;4.18;1.95;;;18.80;88.50;;;;;;5072400;28;20020;-77
2021/06/30 11:48:12;;;;;;;4.90;2.53;;;18.70;88.80;;;;;;5069995;28;20033;-76
2021/06/30 11:50:49;;;;;;;3.97;2.30;;;18.70;89.00;;;;;;5070303;28;20024;-77
2021/06/30 11:53:14;;;;;;;5.47;2.90;;;18.60;89.10;;;;;;5072231;28;20021;-77
2021/06/30 11:55:42;;;;;;;3.88;2.33;;;18.60;89.00;;;;;;5071612;28;20028;-76
2021/06/30 11:58:09;;;;;;;5.60;3.00;;;18.60;89.00;;;;;;5071923;28;20385;-77
2021/06/30 12:00:40;;;;;;;5.07;3.05;;;18.60;89.00;;;;;;5070221;28;20021;-76
2021/06/30 12:03:06;;;;;;;5.45;3.33;;;18.60;88.90;;;;;;5069813;28;20020;-75
2021/06/30 12:05:35;;;;;;;5.20;2.80;;;18.60;88.70;;;;;;5070033;28;20062;-75
2021/06/30 12:08:03;;;;;;;7.30;3.33;;;18.60;88.90;;;;;;5070813;28;20039;-75
2021/06/30 12:10:30;;;;;;;5.18;3.00;;;18.70;88.90;;;;;;5069548;28;20128;-76
2021/06/30 12:12:57;;;;;;;4.75;2.78;;;18.60;88.90;;;;;;5070709;28;20111;-75
2021/06/30 12:15:23;;;;;;;7.30;3.20;;;18.70;89.00;;;;;;5071865;28;20517;-75
2021/06/30 12:17:55;;;;;;;7.68;3.42;;;18.70;89.00;;;;;;5070278;28;20107;-76
2021/06/30 12:20:23;;;;;;;6.68;3.15;;;18.60;88.90;;;;;;5070594;28;20031;-76
2021/06/30 12:22:49;;;;;;;5.28;2.70;;;18.70;89.10;;;;;;5070565;28;20043;-76
2021/06/30 12:25:21;;;;;;;5.75;3.53;;;18.60;89.10;;;;;;5071768;28;20473;-76
2021/06/30 12:28:02;;;;;;;5.78;3.40;;;18.60;89.20;;;;;;5070997;28;20032;-76
2021/06/30 12:30:30;;;;;;;6.70;3.20;;;18.60;89.30;;;;;;5069754;28;20028;-76
2021/06/30 12:33:02;;;;;;;7.18;3.38;;;18.60;89.40;;;;;;5071747;28;20024;-76
2021/06/30 12:35:33;;;;;;;5.93;2.88;;;18.60;89.40;;;;;;5069912;28;20024;-76
2021/06/30 12:38:10;;;;;;;;;;;18.60;89.40;;;;;;5070646;28;20025;-76
2021/06/30 12:40:37;;;;;;;5.47;3.00;;;18.50;89.30;;;;;;5071154;28;20010;-76
2021/06/30 12:43:17;;;;;;;5.75;3.35;;;18.40;89.30;;;;;;5070519;28;20457;-76
2021/06/30 12:45:51;;;;;;;5.03;3.15;;;18.50;89.40;;;;;;5070957;28;20059;-76
2021/06/30 12:48:19;;;;;;;5.97;3.40;;;18.50;89.30;;;;;;5070355;28;20032;-76
2021/06/30 12:50:55;;;;;;;7.80;3.30;;;18.50;89.30;;;;;;5070984;28;20099;-75